sensor_id;sensor_type;location;lat;lon;timestamp;P1;durP1;ratioP1;P2;durP2;ratioP2
35326;SDS011;21436;52.348;20.928;2024-01-25T00:00:59;5.68;;;2.55;;
35326;SDS011;21436;52.348;20.928;2024-01-25T00:03:39;12.48;;;2.63;;
35326;SDS011;21436;52.348;20.928;2024-01-25T00:06:07;14.75;;;3.33;;
35326;SDS011;21436;52.348;20.928;2024-01-25T00:08:35;14.52;;;3.05;;
35326;SDS011;21436;52.348;20.928;2024-01-25T00:11:03;9.75;;;2.58;;
35326;SDS011;21436;52.348;20.928;2024-01-25T00:13:31;14.10;;;2.22;;
35326;SDS011;21436;52.348;20.928;2024-01-25T00:15:58;10.68;;;2.22;;
35326;SDS011;21436;52.348;20.928;2024-01-25T00:18:26;13.85;;;2.67;;
35326;SDS011;21436;52.348;20.928;2024-01-25T00:20:56;6.68;;;1.90;;
35326;SDS011;21436;52.348;20.928;2024-01-25T00:23:24;15.82;;;2.35;;
35326;SDS011;21436;52.348;20.928;2024-01-25T00:25:51;13.55;;;2.65;;
35326;SDS011;21436;52.348;20.928;2024-01-25T00:28:19;7.35;;;2.20;;
35326;SDS011;21436;52.348;20.928;2024-01-25T00:30:47;8.68;;;1.98;;
35326;SDS011;21436;52.348;20.928;2024-01-25T00:33:14;11.40;;;1.88;;
35326;SDS011;21436;52.348;20.928;2024-01-25T00:35:42;6.85;;;1.80;;
35326;SDS011;21436;52.348;20.928;2024-01-25T00:38:10;7.90;;;2.35;;
35326;SDS011;21436;52.348;20.928;2024-01-25T00:40:39;5.15;;;1.80;;
35326;SDS011;21436;52.348;20.928;2024-01-25T00:43:06;8.48;;;1.75;;
35326;SDS011;21436;52.348;20.928;2024-01-25T00:45:35;6.35;;;1.58;;
35326;SDS011;21436;52.348;20.928;2024-01-25T00:48:02;7.85;;;2.00;;
35326;SDS011;21436;52.348;20.928;2024-01-25T00:50:31;7.45;;;2.03;;
35326;SDS011;21436;52.348;20.928;2024-01-25T00:52:59;4.88;;;1.33;;
35326;SDS011;21436;52.348;20.928;2024-01-25T00:55:27;4.00;;;1.33;;
35326;SDS011;21436;52.348;20.928;2024-01-25T00:57:55;5.93;;;1.52;;
35326;SDS011;21436;52.348;20.928;2024-01-25T01:00:23;5.70;;;1.40;;
35326;SDS011;21436;52.348;20.928;2024-01-25T01:02:51;6.40;;;1.60;;
35326;SDS011;21436;52.348;20.928;2024-01-25T01:05:20;3.97;;;1.60;;
35326;SDS011;21436;52.348;20.928;2024-01-25T01:07:49;6.20;;;1.45;;
35326;SDS011;21436;52.348;20.928;2024-01-25T01:10:17;8.55;;;2.08;;
35326;SDS011;21436;52.348;20.928;2024-01-25T01:12:45;7.25;;;1.65;;
35326;SDS011;21436;52.348;20.928;2024-01-25T01:15:13;6.07;;;1.60;;
35326;SDS011;21436;52.348;20.928;2024-01-25T01:17:41;7.55;;;1.58;;
35326;SDS011;21436;52.348;20.928;2024-01-25T01:20:09;5.60;;;1.77;;
35326;SDS011;21436;52.348;20.928;2024-01-25T01:22:37;8.90;;;1.65;;
35326;SDS011;21436;52.348;20.928;2024-01-25T01:25:04;5.43;;;1.55;;
35326;SDS011;21436;52.348;20.928;2024-01-25T01:27:32;9.18;;;1.75;;
35326;SDS011;21436;52.348;20.928;2024-01-25T01:30:00;11.02;;;2.20;;
35326;SDS011;21436;52.348;20.928;2024-01-25T01:32:28;11.13;;;2.17;;
35326;SDS011;21436;52.348;20.928;2024-01-25T01:34:56;5.38;;;1.35;;
35326;SDS011;21436;52.348;20.928;2024-01-25T01:37:23;9.13;;;2.10;;
35326;SDS011;21436;52.348;20.928;2024-01-25T01:39:51;9.48;;;1.77;;
35326;SDS011;21436;52.348;20.928;2024-01-25T01:42:19;10.88;;;2.13;;
35326;SDS011;21436;52.348;20.928;2024-01-25T01:44:47;10.20;;;1.98;;
35326;SDS011;21436;52.348;20.928;2024-01-25T01:47:16;11.80;;;2.33;;
35326;SDS011;21436;52.348;20.928;2024-01-25T01:49:44;11.38;;;2.22;;
35326;SDS011;21436;52.348;20.928;2024-01-25T01:52:12;8.73;;;2.20;;
35326;SDS011;21436;52.348;20.928;2024-01-25T01:54:40;8.82;;;2.10;;
35326;SDS011;21436;52.348;20.928;2024-01-25T01:57:08;12.77;;;2.10;;
35326;SDS011;21436;52.348;20.928;2024-01-25T01:59:36;15.73;;;2.05;;
35326;SDS011;21436;52.348;20.928;2024-01-25T02:02:03;17.42;;;2.20;;
35326;SDS011;21436;52.348;20.928;2024-01-25T02:04:31;13.32;;;1.67;;
35326;SDS011;21436;52.348;20.928;2024-01-25T02:06:59;11.43;;;1.83;;
35326;SDS011;21436;52.348;20.928;2024-01-25T02:09:27;12.48;;;2.10;;
35326;SDS011;21436;52.348;20.928;2024-01-25T02:12:01;9.98;;;1.88;;
35326;SDS011;21436;52.348;20.928;2024-01-25T02:14:30;12.27;;;2.28;;
35326;SDS011;21436;52.348;20.928;2024-01-25T02:16:58;8.15;;;1.92;;
35326;SDS011;21436;52.348;20.928;2024-01-25T02:19:26;11.45;;;2.15;;
35326;SDS011;21436;52.348;20.928;2024-01-25T02:21:53;12.95;;;2.47;;
35326;SDS011;21436;52.348;20.928;2024-01-25T02:24:22;13.70;;;2.17;;
35326;SDS011;21436;52.348;20.928;2024-01-25T02:26:49;12.25;;;2.90;;
35326;SDS011;21436;52.348;20.928;2024-01-25T02:29:18;16.88;;;3.55;;
35326;SDS011;21436;52.348;20.928;2024-01-25T02:31:46;10.50;;;2.60;;
35326;SDS011;21436;52.348;20.928;2024-01-25T02:34:14;12.73;;;2.83;;
35326;SDS011;21436;52.348;20.928;2024-01-25T02:36:42;10.80;;;2.13;;
35326;SDS011;21436;52.348;20.928;2024-01-25T02:39:10;16.60;;;2.55;;
35326;SDS011;21436;52.348;20.928;2024-01-25T02:41:37;15.30;;;2.70;;
35326;SDS011;21436;52.348;20.928;2024-01-25T02:44:05;10.90;;;3.08;;
35326;SDS011;21436;52.348;20.928;2024-01-25T02:46:33;18.25;;;3.17;;
35326;SDS011;21436;52.348;20.928;2024-01-25T02:49:01;17.23;;;3.55;;
35326;SDS011;21436;52.348;20.928;2024-01-25T02:51:28;10.95;;;2.78;;
35326;SDS011;21436;52.348;20.928;2024-01-25T02:53:56;21.25;;;2.80;;
35326;SDS011;21436;52.348;20.928;2024-01-25T02:56:24;16.70;;;3.00;;
35326;SDS011;21436;52.348;20.928;2024-01-25T02:58:51;16.63;;;3.17;;
35326;SDS011;21436;52.348;20.928;2024-01-25T03:01:19;16.05;;;3.00;;
35326;SDS011;21436;52.348;20.928;2024-01-25T03:03:47;13.93;;;3.95;;
35326;SDS011;21436;52.348;20.928;2024-01-25T03:06:14;16.48;;;3.08;;
35326;SDS011;21436;52.348;20.928;2024-01-25T03:08:42;17.52;;;3.28;;
35326;SDS011;21436;52.348;20.928;2024-01-25T03:11:10;16.38;;;3.33;;
35326;SDS011;21436;52.348;20.928;2024-01-25T03:13:37;15.23;;;3.50;;
35326;SDS011;21436;52.348;20.928;2024-01-25T03:16:05;13.13;;;2.88;;
35326;SDS011;21436;52.348;20.928;2024-01-25T03:18:33;13.57;;;2.95;;
35326;SDS011;21436;52.348;20.928;2024-01-25T03:21:01;8.35;;;3.08;;
35326;SDS011;21436;52.348;20.928;2024-01-25T03:23:29;13.57;;;3.45;;
35326;SDS011;21436;52.348;20.928;2024-01-25T03:25:56;13.82;;;4.15;;
35326;SDS011;21436;52.348;20.928;2024-01-25T03:28:24;10.52;;;3.00;;
35326;SDS011;21436;52.348;20.928;2024-01-25T03:30:52;16.27;;;3.72;;
35326;SDS011;21436;52.348;20.928;2024-01-25T03:33:20;13.02;;;2.78;;
35326;SDS011;21436;52.348;20.928;2024-01-25T03:35:48;15.38;;;3.00;;
35326;SDS011;21436;52.348;20.928;2024-01-25T03:38:16;16.75;;;3.70;;
35326;SDS011;21436;52.348;20.928;2024-01-25T03:40:44;15.63;;;3.22;;
35326;SDS011;21436;52.348;20.928;2024-01-25T03:43:11;15.10;;;3.42;;
35326;SDS011;21436;52.348;20.928;2024-01-25T03:45:48;13.82;;;3.08;;
35326;SDS011;21436;52.348;20.928;2024-01-25T03:48:18;18.98;;;3.35;;
35326;SDS011;21436;52.348;20.928;2024-01-25T03:50:46;13.85;;;3.42;;
35326;SDS011;21436;52.348;20.928;2024-01-25T03:53:13;16.25;;;3.53;;
35326;SDS011;21436;52.348;20.928;2024-01-25T03:55:41;20.10;;;3.63;;
35326;SDS011;21436;52.348;20.928;2024-01-25T03:58:09;16.10;;;3.60;;
35326;SDS011;21436;52.348;20.928;2024-01-25T04:00:36;17.77;;;4.75;;
35326;SDS011;21436;52.348;20.928;2024-01-25T04:03:04;15.13;;;3.55;;
35326;SDS011;21436;52.348;20.928;2024-01-25T04:05:32;16.50;;;3.22;;
35326;SDS011;21436;52.348;20.928;2024-01-25T04:07:59;20.27;;;3.75;;
35326;SDS011;21436;52.348;20.928;2024-01-25T04:10:27;14.45;;;3.35;;
35326;SDS011;21436;52.348;20.928;2024-01-25T04:12:55;13.15;;;2.88;;
35326;SDS011;21436;52.348;20.928;2024-01-25T04:15:23;11.93;;;3.08;;
35326;SDS011;21436;52.348;20.928;2024-01-25T04:17:51;16.45;;;3.40;;
35326;SDS011;21436;52.348;20.928;2024-01-25T04:20:20;14.68;;;3.50;;
35326;SDS011;21436;52.348;20.928;2024-01-25T04:22:48;12.45;;;3.22;;
35326;SDS011;21436;52.348;20.928;2024-01-25T04:25:15;15.43;;;4.05;;
35326;SDS011;21436;52.348;20.928;2024-01-25T04:27:43;14.57;;;2.67;;
35326;SDS011;21436;52.348;20.928;2024-01-25T04:30:11;16.42;;;3.50;;
35326;SDS011;21436;52.348;20.928;2024-01-25T04:32:39;22.95;;;3.53;;
35326;SDS011;21436;52.348;20.928;2024-01-25T04:35:08;16.83;;;3.45;;
35326;SDS011;21436;52.348;20.928;2024-01-25T04:37:37;21.20;;;4.13;;
35326;SDS011;21436;52.348;20.928;2024-01-25T04:40:05;20.02;;;4.00;;
35326;SDS011;21436;52.348;20.928;2024-01-25T04:42:33;19.00;;;3.33;;
35326;SDS011;21436;52.348;20.928;2024-01-25T04:45:01;19.67;;;3.80;;
35326;SDS011;21436;52.348;20.928;2024-01-25T04:47:29;22.15;;;4.03;;
35326;SDS011;21436;52.348;20.928;2024-01-25T04:49:58;17.73;;;3.50;;
35326;SDS011;21436;52.348;20.928;2024-01-25T04:52:25;11.45;;;3.78;;
35326;SDS011;21436;52.348;20.928;2024-01-25T04:54:53;15.05;;;3.65;;
35326;SDS011;21436;52.348;20.928;2024-01-25T04:57:21;19.92;;;3.63;;
35326;SDS011;21436;52.348;20.928;2024-01-25T04:59:48;18.77;;;3.00;;
35326;SDS011;21436;52.348;20.928;2024-01-25T05:02:16;24.58;;;3.58;;
35326;SDS011;21436;52.348;20.928;2024-01-25T05:04:44;13.13;;;2.85;;
35326;SDS011;21436;52.348;20.928;2024-01-25T05:07:13;14.48;;;3.45;;
35326;SDS011;21436;52.348;20.928;2024-01-25T05:09:40;10.68;;;3.10;;
35326;SDS011;21436;52.348;20.928;2024-01-25T05:12:08;15.85;;;3.08;;
35326;SDS011;21436;52.348;20.928;2024-01-25T05:14:37;10.25;;;3.05;;
35326;SDS011;21436;52.348;20.928;2024-01-25T05:17:06;12.13;;;2.88;;
35326;SDS011;21436;52.348;20.928;2024-01-25T05:19:33;17.42;;;3.08;;
35326;SDS011;21436;52.348;20.928;2024-01-25T05:22:01;14.77;;;3.53;;
35326;SDS011;21436;52.348;20.928;2024-01-25T05:24:33;16.05;;;3.63;;
35326;SDS011;21436;52.348;20.928;2024-01-25T05:27:01;13.98;;;3.20;;
35326;SDS011;21436;52.348;20.928;2024-01-25T05:29:30;11.98;;;2.88;;
35326;SDS011;21436;52.348;20.928;2024-01-25T05:34:56;12.07;;;3.15;;
35326;SDS011;21436;52.348;20.928;2024-01-25T05:37:25;12.55;;;2.90;;
35326;SDS011;21436;52.348;20.928;2024-01-25T05:39:52;13.60;;;3.58;;
35326;SDS011;21436;52.348;20.928;2024-01-25T05:42:21;15.65;;;3.78;;
35326;SDS011;21436;52.348;20.928;2024-01-25T05:44:48;7.78;;;2.63;;
35326;SDS011;21436;52.348;20.928;2024-01-25T05:47:17;21.33;;;5.25;;
35326;SDS011;21436;52.348;20.928;2024-01-25T05:49:45;12.00;;;3.97;;
35326;SDS011;21436;52.348;20.928;2024-01-25T05:52:14;10.07;;;3.30;;
35326;SDS011;21436;52.348;20.928;2024-01-25T05:54:42;12.63;;;3.40;;
35326;SDS011;21436;52.348;20.928;2024-01-25T05:57:12;14.70;;;3.53;;
35326;SDS011;21436;52.348;20.928;2024-01-25T05:59:40;15.68;;;3.13;;
35326;SDS011;21436;52.348;20.928;2024-01-25T06:02:08;6.47;;;2.47;;
35326;SDS011;21436;52.348;20.928;2024-01-25T06:04:36;14.07;;;2.83;;
35326;SDS011;21436;52.348;20.928;2024-01-25T06:07:05;14.55;;;3.17;;
35326;SDS011;21436;52.348;20.928;2024-01-25T06:09:33;11.05;;;3.00;;
35326;SDS011;21436;52.348;20.928;2024-01-25T06:12:01;10.88;;;3.05;;
35326;SDS011;21436;52.348;20.928;2024-01-25T06:14:32;12.00;;;2.53;;
35326;SDS011;21436;52.348;20.928;2024-01-25T06:17:00;21.30;;;3.17;;
35326;SDS011;21436;52.348;20.928;2024-01-25T06:19:27;16.05;;;3.28;;
35326;SDS011;21436;52.348;20.928;2024-01-25T06:21:56;14.25;;;2.60;;
35326;SDS011;21436;52.348;20.928;2024-01-25T06:24:23;13.18;;;3.15;;
35326;SDS011;21436;52.348;20.928;2024-01-25T06:26:53;7.35;;;2.42;;
35326;SDS011;21436;52.348;20.928;2024-01-25T06:29:20;14.70;;;2.92;;
35326;SDS011;21436;52.348;20.928;2024-01-25T06:31:49;13.68;;;2.65;;
35326;SDS011;21436;52.348;20.928;2024-01-25T06:34:17;9.77;;;2.60;;
35326;SDS011;21436;52.348;20.928;2024-01-25T06:36:45;11.50;;;2.33;;
35326;SDS011;21436;52.348;20.928;2024-01-25T06:39:13;15.48;;;3.45;;
35326;SDS011;21436;52.348;20.928;2024-01-25T06:41:41;10.48;;;2.28;;
35326;SDS011;21436;52.348;20.928;2024-01-25T06:44:09;15.32;;;2.60;;
35326;SDS011;21436;52.348;20.928;2024-01-25T06:46:37;6.93;;;2.78;;
35326;SDS011;21436;52.348;20.928;2024-01-25T06:49:05;10.40;;;2.70;;
35326;SDS011;21436;52.348;20.928;2024-01-25T06:51:35;13.68;;;2.58;;
35326;SDS011;21436;52.348;20.928;2024-01-25T06:54:03;10.32;;;2.65;;
35326;SDS011;21436;52.348;20.928;2024-01-25T06:56:31;13.98;;;2.63;;
35326;SDS011;21436;52.348;20.928;2024-01-25T06:58:59;7.60;;;2.38;;
35326;SDS011;21436;52.348;20.928;2024-01-25T07:01:28;15.82;;;3.03;;
35326;SDS011;21436;52.348;20.928;2024-01-25T07:03:59;11.55;;;3.22;;
35326;SDS011;21436;52.348;20.928;2024-01-25T07:06:28;8.02;;;2.47;;
35326;SDS011;21436;52.348;20.928;2024-01-25T07:08:56;9.98;;;2.78;;
35326;SDS011;21436;52.348;20.928;2024-01-25T07:11:24;10.68;;;2.50;;
35326;SDS011;21436;52.348;20.928;2024-01-25T07:13:53;16.77;;;2.95;;
35326;SDS011;21436;52.348;20.928;2024-01-25T07:16:21;13.10;;;3.00;;
35326;SDS011;21436;52.348;20.928;2024-01-25T07:18:49;10.68;;;2.63;;
35326;SDS011;21436;52.348;20.928;2024-01-25T07:21:18;9.27;;;2.80;;
35326;SDS011;21436;52.348;20.928;2024-01-25T07:23:46;16.42;;;3.55;;
35326;SDS011;21436;52.348;20.928;2024-01-25T07:26:20;10.38;;;2.17;;
35326;SDS011;21436;52.348;20.928;2024-01-25T07:28:49;11.55;;;3.40;;
35326;SDS011;21436;52.348;20.928;2024-01-25T07:31:17;11.02;;;2.90;;
35326;SDS011;21436;52.348;20.928;2024-01-25T07:33:44;9.35;;;2.83;;
35326;SDS011;21436;52.348;20.928;2024-01-25T07:36:13;10.25;;;3.08;;
35326;SDS011;21436;52.348;20.928;2024-01-25T07:38:43;9.88;;;3.45;;
35326;SDS011;21436;52.348;20.928;2024-01-25T07:41:14;15.27;;;3.95;;
35326;SDS011;21436;52.348;20.928;2024-01-25T07:43:42;7.88;;;2.70;;
35326;SDS011;21436;52.348;20.928;2024-01-25T07:46:11;13.18;;;3.47;;
35326;SDS011;21436;52.348;20.928;2024-01-25T07:48:42;12.00;;;2.88;;
35326;SDS011;21436;52.348;20.928;2024-01-25T07:51:11;11.30;;;3.53;;
35326;SDS011;21436;52.348;20.928;2024-01-25T07:53:41;6.47;;;2.10;;
35326;SDS011;21436;52.348;20.928;2024-01-25T07:56:09;6.35;;;2.10;;
35326;SDS011;21436;52.348;20.928;2024-01-25T07:58:38;8.18;;;2.55;;
35326;SDS011;21436;52.348;20.928;2024-01-25T08:01:06;5.47;;;2.33;;
35326;SDS011;21436;52.348;20.928;2024-01-25T08:03:34;12.68;;;2.97;;
35326;SDS011;21436;52.348;20.928;2024-01-25T08:06:03;6.35;;;2.30;;
35326;SDS011;21436;52.348;20.928;2024-01-25T08:08:31;5.32;;;3.28;;
35326;SDS011;21436;52.348;20.928;2024-01-25T08:10:59;7.22;;;3.13;;
35326;SDS011;21436;52.348;20.928;2024-01-25T08:13:27;4.68;;;2.13;;
35326;SDS011;21436;52.348;20.928;2024-01-25T08:16:00;8.63;;;2.78;;
35326;SDS011;21436;52.348;20.928;2024-01-25T08:18:28;4.15;;;2.35;;
35326;SDS011;21436;52.348;20.928;2024-01-25T08:20:58;6.93;;;2.90;;
35326;SDS011;21436;52.348;20.928;2024-01-25T08:23:28;7.00;;;2.97;;
35326;SDS011;21436;52.348;20.928;2024-01-25T08:25:56;9.00;;;2.25;;
35326;SDS011;21436;52.348;20.928;2024-01-25T08:28:23;6.55;;;2.92;;
35326;SDS011;21436;52.348;20.928;2024-01-25T08:30:52;7.53;;;2.47;;
35326;SDS011;21436;52.348;20.928;2024-01-25T08:33:20;5.45;;;2.35;;
35326;SDS011;21436;52.348;20.928;2024-01-25T08:35:49;5.15;;;2.72;;
35326;SDS011;21436;52.348;20.928;2024-01-25T08:38:17;8.48;;;2.95;;
35326;SDS011;21436;52.348;20.928;2024-01-25T08:40:45;7.40;;;2.67;;
35326;SDS011;21436;52.348;20.928;2024-01-25T08:43:13;9.27;;;2.58;;
35326;SDS011;21436;52.348;20.928;2024-01-25T08:45:41;5.13;;;2.63;;
35326;SDS011;21436;52.348;20.928;2024-01-25T08:48:08;8.25;;;3.10;;
35326;SDS011;21436;52.348;20.928;2024-01-25T08:50:37;4.80;;;1.83;;
35326;SDS011;21436;52.348;20.928;2024-01-25T08:53:04;8.23;;;2.72;;
35326;SDS011;21436;52.348;20.928;2024-01-25T08:55:33;6.65;;;2.58;;
35326;SDS011;21436;52.348;20.928;2024-01-25T08:58:01;6.78;;;2.88;;
35326;SDS011;21436;52.348;20.928;2024-01-25T09:00:29;5.88;;;2.95;;
35326;SDS011;21436;52.348;20.928;2024-01-25T09:02:57;7.70;;;2.78;;
35326;SDS011;21436;52.348;20.928;2024-01-25T09:05:25;5.18;;;2.38;;
35326;SDS011;21436;52.348;20.928;2024-01-25T09:07:56;5.07;;;2.45;;
35326;SDS011;21436;52.348;20.928;2024-01-25T09:10:24;4.28;;;2.20;;
35326;SDS011;21436;52.348;20.928;2024-01-25T09:12:52;5.80;;;2.78;;
35326;SDS011;21436;52.348;20.928;2024-01-25T09:15:20;6.55;;;2.70;;
35326;SDS011;21436;52.348;20.928;2024-01-25T09:17:48;4.78;;;2.25;;
35326;SDS011;21436;52.348;20.928;2024-01-25T09:20:17;5.43;;;2.75;;
35326;SDS011;21436;52.348;20.928;2024-01-25T09:22:45;3.78;;;2.22;;
35326;SDS011;21436;52.348;20.928;2024-01-25T09:25:13;3.45;;;2.33;;
35326;SDS011;21436;52.348;20.928;2024-01-25T09:27:40;3.60;;;2.40;;
35326;SDS011;21436;52.348;20.928;2024-01-25T09:30:09;4.07;;;2.63;;
35326;SDS011;21436;52.348;20.928;2024-01-25T09:32:37;5.60;;;2.75;;
35326;SDS011;21436;52.348;20.928;2024-01-25T09:35:05;4.78;;;2.22;;
35326;SDS011;21436;52.348;20.928;2024-01-25T09:37:35;4.45;;;2.42;;
35326;SDS011;21436;52.348;20.928;2024-01-25T09:40:04;4.43;;;1.85;;
35326;SDS011;21436;52.348;20.928;2024-01-25T09:42:33;5.13;;;2.53;;
35326;SDS011;21436;52.348;20.928;2024-01-25T09:45:01;8.13;;;2.88;;
35326;SDS011;21436;52.348;20.928;2024-01-25T09:47:29;5.05;;;2.90;;
35326;SDS011;21436;52.348;20.928;2024-01-25T09:49:58;5.53;;;2.47;;
35326;SDS011;21436;52.348;20.928;2024-01-25T09:52:27;7.18;;;2.40;;
35326;SDS011;21436;52.348;20.928;2024-01-25T09:54:56;3.53;;;2.30;;
35326;SDS011;21436;52.348;20.928;2024-01-25T09:57:24;8.35;;;2.83;;
35326;SDS011;21436;52.348;20.928;2024-01-25T09:59:54;7.50;;;2.20;;
35326;SDS011;21436;52.348;20.928;2024-01-25T10:02:22;4.93;;;2.35;;
35326;SDS011;21436;52.348;20.928;2024-01-25T10:04:52;3.72;;;2.10;;
35326;SDS011;21436;52.348;20.928;2024-01-25T10:10:10;4.20;;;2.30;;
35326;SDS011;21436;52.348;20.928;2024-01-25T10:12:40;3.50;;;2.17;;
35326;SDS011;21436;52.348;20.928;2024-01-25T10:15:09;4.45;;;1.88;;
35326;SDS011;21436;52.348;20.928;2024-01-25T10:17:38;4.90;;;2.05;;
35326;SDS011;21436;52.348;20.928;2024-01-25T10:20:26;3.53;;;1.48;;
35326;SDS011;21436;52.348;20.928;2024-01-25T10:22:58;4.05;;;2.08;;
35326;SDS011;21436;52.348;20.928;2024-01-25T10:25:28;5.13;;;2.10;;
35326;SDS011;21436;52.348;20.928;2024-01-25T10:27:57;3.90;;;1.98;;
35326;SDS011;21436;52.348;20.928;2024-01-25T10:30:26;6.57;;;2.22;;
35326;SDS011;21436;52.348;20.928;2024-01-25T10:32:54;5.25;;;2.03;;
35326;SDS011;21436;52.348;20.928;2024-01-25T10:35:23;3.03;;;1.70;;
35326;SDS011;21436;52.348;20.928;2024-01-25T10:37:54;6.53;;;2.40;;
35326;SDS011;21436;52.348;20.928;2024-01-25T10:40:22;4.40;;;2.15;;
35326;SDS011;21436;52.348;20.928;2024-01-25T10:42:50;4.30;;;1.83;;
35326;SDS011;21436;52.348;20.928;2024-01-25T10:45:19;3.08;;;1.65;;
35326;SDS011;21436;52.348;20.928;2024-01-25T10:47:50;6.55;;;1.42;;
35326;SDS011;21436;52.348;20.928;2024-01-25T10:50:19;3.47;;;1.58;;
35326;SDS011;21436;52.348;20.928;2024-01-25T10:52:47;2.42;;;1.70;;
35326;SDS011;21436;52.348;20.928;2024-01-25T10:55:15;3.25;;;1.30;;
35326;SDS011;21436;52.348;20.928;2024-01-25T10:57:44;3.72;;;1.65;;
35326;SDS011;21436;52.348;20.928;2024-01-25T11:00:14;3.90;;;1.25;;
35326;SDS011;21436;52.348;20.928;2024-01-25T11:02:43;4.80;;;1.42;;
35326;SDS011;21436;52.348;20.928;2024-01-25T11:05:13;1.90;;;1.27;;
35326;SDS011;21436;52.348;20.928;2024-01-25T11:07:46;3.17;;;1.50;;
35326;SDS011;21436;52.348;20.928;2024-01-25T11:10:22;3.78;;;1.60;;
35326;SDS011;21436;52.348;20.928;2024-01-25T11:13:00;5.07;;;1.42;;
35326;SDS011;21436;52.348;20.928;2024-01-25T11:15:31;3.42;;;1.30;;
35326;SDS011;21436;52.348;20.928;2024-01-25T11:18:03;8.38;;;1.58;;
35326;SDS011;21436;52.348;20.928;2024-01-25T11:20:35;3.60;;;1.65;;
35326;SDS011;21436;52.348;20.928;2024-01-25T11:23:04;4.25;;;1.40;;
35326;SDS011;21436;52.348;20.928;2024-01-25T11:25:35;2.78;;;1.33;;
35326;SDS011;21436;52.348;20.928;2024-01-25T11:28:04;2.78;;;1.38;;
35326;SDS011;21436;52.348;20.928;2024-01-25T11:30:33;6.88;;;1.90;;
35326;SDS011;21436;52.348;20.928;2024-01-25T11:33:08;2.47;;;1.52;;
35326;SDS011;21436;52.348;20.928;2024-01-25T11:35:37;2.90;;;1.15;;
35326;SDS011;21436;52.348;20.928;2024-01-25T11:38:05;3.95;;;1.30;;
35326;SDS011;21436;52.348;20.928;2024-01-25T11:40:33;2.45;;;1.20;;
35326;SDS011;21436;52.348;20.928;2024-01-25T11:43:04;3.20;;;1.33;;
35326;SDS011;21436;52.348;20.928;2024-01-25T11:45:39;3.60;;;1.70;;
35326;SDS011;21436;52.348;20.928;2024-01-25T11:48:11;5.22;;;1.60;;
35326;SDS011;21436;52.348;20.928;2024-01-25T11:50:39;3.53;;;1.70;;
35326;SDS011;21436;52.348;20.928;2024-01-25T11:53:07;4.60;;;1.40;;
35326;SDS011;21436;52.348;20.928;2024-01-25T11:55:36;4.63;;;2.00;;
35326;SDS011;21436;52.348;20.928;2024-01-25T11:58:04;5.38;;;1.77;;
35326;SDS011;21436;52.348;20.928;2024-01-25T12:00:32;4.68;;;1.70;;
35326;SDS011;21436;52.348;20.928;2024-01-25T12:03:00;2.50;;;1.83;;
35326;SDS011;21436;52.348;20.928;2024-01-25T12:05:29;2.95;;;1.98;;
35326;SDS011;21436;52.348;20.928;2024-01-25T12:07:57;6.82;;;2.83;;
35326;SDS011;21436;52.348;20.928;2024-01-25T12:10:25;5.75;;;1.80;;
35326;SDS011;21436;52.348;20.928;2024-01-25T12:12:53;5.65;;;2.38;;
35326;SDS011;21436;52.348;20.928;2024-01-25T12:15:23;6.20;;;2.60;;
35326;SDS011;21436;52.348;20.928;2024-01-25T12:17:50;3.92;;;2.00;;
35326;SDS011;21436;52.348;20.928;2024-01-25T12:20:19;4.25;;;2.95;;
35326;SDS011;21436;52.348;20.928;2024-01-25T12:22:48;2.85;;;1.80;;
35326;SDS011;21436;52.348;20.928;2024-01-25T12:25:16;3.63;;;1.50;;
35326;SDS011;21436;52.348;20.928;2024-01-25T12:27:44;2.78;;;1.60;;
35326;SDS011;21436;52.348;20.928;2024-01-25T12:30:17;2.00;;;0.80;;
35326;SDS011;21436;52.348;20.928;2024-01-25T12:32:47;5.90;;;1.80;;
35326;SDS011;21436;52.348;20.928;2024-01-25T12:35:16;3.78;;;2.35;;
35326;SDS011;21436;52.348;20.928;2024-01-25T12:37:45;2.38;;;0.98;;
35326;SDS011;21436;52.348;20.928;2024-01-25T12:40:13;2.92;;;1.65;;
35326;SDS011;21436;52.348;20.928;2024-01-25T12:42:42;2.97;;;2.05;;
35326;SDS011;21436;52.348;20.928;2024-01-25T12:45:12;2.70;;;1.65;;
35326;SDS011;21436;52.348;20.928;2024-01-25T12:47:39;2.85;;;1.75;;
35326;SDS011;21436;52.348;20.928;2024-01-25T12:50:08;2.70;;;1.85;;
35326;SDS011;21436;52.348;20.928;2024-01-25T12:52:36;3.78;;;1.75;;
35326;SDS011;21436;52.348;20.928;2024-01-25T12:55:05;7.20;;;3.05;;
35326;SDS011;21436;52.348;20.928;2024-01-25T12:57:38;5.28;;;2.60;;
35326;SDS011;21436;52.348;20.928;2024-01-25T13:00:06;6.65;;;2.33;;
35326;SDS011;21436;52.348;20.928;2024-01-25T13:02:34;5.88;;;2.53;;
35326;SDS011;21436;52.348;20.928;2024-01-25T13:05:03;3.83;;;1.85;;
35326;SDS011;21436;52.348;20.928;2024-01-25T13:07:31;4.45;;;2.42;;
35326;SDS011;21436;52.348;20.928;2024-01-25T13:09:59;5.82;;;2.08;;
35326;SDS011;21436;52.348;20.928;2024-01-25T13:12:27;1.77;;;1.48;;
35326;SDS011;21436;52.348;20.928;2024-01-25T13:14:55;6.32;;;2.28;;
35326;SDS011;21436;52.348;20.928;2024-01-25T13:17:23;2.17;;;1.30;;
35326;SDS011;21436;52.348;20.928;2024-01-25T13:19:52;2.22;;;1.50;;
35326;SDS011;21436;52.348;20.928;2024-01-25T13:22:20;6.97;;;2.92;;
35326;SDS011;21436;52.348;20.928;2024-01-25T13:24:50;2.35;;;1.52;;
35326;SDS011;21436;52.348;20.928;2024-01-25T13:27:18;5.05;;;2.05;;
35326;SDS011;21436;52.348;20.928;2024-01-25T13:29:46;4.22;;;1.40;;
35326;SDS011;21436;52.348;20.928;2024-01-25T13:32:14;2.78;;;1.60;;
35326;SDS011;21436;52.348;20.928;2024-01-25T13:34:42;3.70;;;1.70;;
35326;SDS011;21436;52.348;20.928;2024-01-25T13:37:10;7.72;;;2.50;;
35326;SDS011;21436;52.348;20.928;2024-01-25T13:39:38;4.13;;;1.90;;
35326;SDS011;21436;52.348;20.928;2024-01-25T13:42:05;2.38;;;1.60;;
35326;SDS011;21436;52.348;20.928;2024-01-25T13:44:33;5.55;;;3.30;;
35326;SDS011;21436;52.348;20.928;2024-01-25T13:47:01;7.75;;;1.60;;
35326;SDS011;21436;52.348;20.928;2024-01-25T13:49:29;3.40;;;1.70;;
35326;SDS011;21436;52.348;20.928;2024-01-25T13:51:59;4.50;;;1.77;;
35326;SDS011;21436;52.348;20.928;2024-01-25T13:54:29;8.13;;;3.35;;
35326;SDS011;21436;52.348;20.928;2024-01-25T13:56:57;2.78;;;1.70;;
35326;SDS011;21436;52.348;20.928;2024-01-25T13:59:25;3.28;;;1.40;;
35326;SDS011;21436;52.348;20.928;2024-01-25T14:01:53;10.63;;;2.83;;
35326;SDS011;21436;52.348;20.928;2024-01-25T14:04:21;6.88;;;3.38;;
35326;SDS011;21436;52.348;20.928;2024-01-25T14:06:49;7.53;;;3.28;;
35326;SDS011;21436;52.348;20.928;2024-01-25T14:09:18;2.10;;;1.63;;
35326;SDS011;21436;52.348;20.928;2024-01-25T14:11:46;4.30;;;1.63;;
35326;SDS011;21436;52.348;20.928;2024-01-25T14:14:15;3.45;;;1.42;;
35326;SDS011;21436;52.348;20.928;2024-01-25T14:16:43;2.00;;;1.08;;
35326;SDS011;21436;52.348;20.928;2024-01-25T14:19:11;7.72;;;1.48;;
35326;SDS011;21436;52.348;20.928;2024-01-25T14:21:39;3.42;;;1.60;;
35326;SDS011;21436;52.348;20.928;2024-01-25T14:24:08;7.03;;;1.58;;
35326;SDS011;21436;52.348;20.928;2024-01-25T14:26:35;2.70;;;1.55;;
35326;SDS011;21436;52.348;20.928;2024-01-25T14:29:04;2.20;;;1.30;;
35326;SDS011;21436;52.348;20.928;2024-01-25T14:31:32;4.97;;;1.92;;
35326;SDS011;21436;52.348;20.928;2024-01-25T14:34:00;2.45;;;1.70;;
35326;SDS011;21436;52.348;20.928;2024-01-25T14:36:28;3.28;;;1.90;;
35326;SDS011;21436;52.348;20.928;2024-01-25T14:38:56;4.47;;;1.95;;
35326;SDS011;21436;52.348;20.928;2024-01-25T14:41:24;2.80;;;1.70;;